sensor_id;sensor_type;location;lat;lon;timestamp;pressure;altitude;pressure_sealevel;temperature;humidity
35647;BME280;28680;45.642;13.756;2023-04-28T00:02:19;101643.50;;;12.99;100.00
35647;BME280;28680;45.642;13.756;2023-04-28T00:04:45;101634.97;;;12.96;100.00
35647;BME280;28680;45.642;13.756;2023-04-28T00:07:11;101637.50;;;12.97;100.00
35647;BME280;28680;45.642;13.756;2023-04-28T00:09:37;101639.16;;;12.98;100.00
35647;BME280;28680;45.642;13.756;2023-04-28T00:12:04;101638.94;;;13.01;100.00
35647;BME280;28680;45.642;13.756;2023-04-28T00:14:30;101633.16;;;12.96;100.00
35647;BME280;28680;45.642;13.756;2023-04-28T00:16:56;101638.09;;;13.01;100.00
35647;BME280;28680;45.642;13.756;2023-04-28T00:19:23;101631.06;;;13.13;100.00
35647;BME280;28680;45.642;13.756;2023-04-28T00:21:49;101628.81;;;13.19;100.00
35647;BME280;28680;45.642;13.756;2023-04-28T00:24:15;101621.63;;;13.10;100.00
35647;BME280;28680;45.642;13.756;2023-04-28T00:26:41;101620.41;;;13.14;100.00
35647;BME280;28680;45.642;13.756;2023-04-28T00:29:07;101624.44;;;12.96;100.00
35647;BME280;28680;45.642;13.756;2023-04-28T00:31:32;101614.09;;;12.93;100.00
35647;BME280;28680;45.642;13.756;2023-04-28T00:33:59;101617.94;;;12.88;100.00
35647;BME280;28680;45.642;13.756;2023-04-28T00:36:25;101623.81;;;12.92;100.00
35647;BME280;28680;45.642;13.756;2023-04-28T00:38:55;101622.38;;;12.88;100.00
35647;BME280;28680;45.642;13.756;2023-04-28T00:41:21;101620.91;;;12.84;100.00
35647;BME280;28680;45.642;13.756;2023-04-28T00:43:47;101620.06;;;12.83;100.00
35647;BME280;28680;45.642;13.756;2023-04-28T00:46:21;101620.06;;;12.83;100.00
35647;BME280;28680;45.642;13.756;2023-04-28T00:48:48;101620.41;;;12.79;100.00
35647;BME280;28680;45.642;13.756;2023-04-28T00:51:15;101613.56;;;12.76;100.00
35647;BME280;28680;45.642;13.756;2023-04-28T00:53:43;101605.78;;;12.75;100.00
35647;BME280;28680;45.642;13.756;2023-04-28T00:56:09;101601.75;;;12.82;100.00
35647;BME280;28680;45.642;13.756;2023-04-28T00:58:36;101598.66;;;12.88;100.00
35647;BME280;28680;45.642;13.756;2023-04-28T01:01:04;101602.22;;;12.87;100.00
35647;BME280;28680;45.642;13.756;2023-04-28T01:03:34;101602.22;;;12.87;100.00
35647;BME280;28680;45.642;13.756;2023-04-28T01:06:00;101586.66;;;12.84;100.00
35647;BME280;28680;45.642;13.756;2023-04-28T01:08:30;101596.69;;;12.79;100.00
35647;BME280;28680;45.642;13.756;2023-04-28T01:10:56;101595.56;;;12.70;100.00
35647;BME280;28680;45.642;13.756;2023-04-28T01:13:23;101589.88;;;12.76;100.00
35647;BME280;28680;45.642;13.756;2023-04-28T01:15:49;101591.31;;;12.80;100.00
35647;BME280;28680;45.642;13.756;2023-04-28T01:18:16;101596.81;;;12.77;100.00
35647;BME280;28680;45.642;13.756;2023-04-28T01:20:42;101596.31;;;12.72;100.00
35647;BME280;28680;45.642;13.756;2023-04-28T01:23:15;101598.56;;;12.65;100.00
35647;BME280;28680;45.642;13.756;2023-04-28T01:25:42;101598.66;;;12.64;100.00
35647;BME280;28680;45.642;13.756;2023-04-28T01:28:09;101597.31;;;12.58;100.00
35647;BME280;28680;45.642;13.756;2023-04-28T01:30:35;101594.72;;;12.45;100.00
35647;BME280;28680;45.642;13.756;2023-04-28T01:33:02;101601.13;;;12.54;100.00
35647;BME280;28680;45.642;13.756;2023-04-28T01:35:28;101598.94;;;12.48;100.00
35647;BME280;28680;45.642;13.756;2023-04-28T01:37:54;101606.97;;;12.46;100.00
35647;BME280;28680;45.642;13.756;2023-04-28T01:40:20;101604.44;;;12.45;100.00
35647;BME280;28680;45.642;13.756;2023-04-28T01:42:46;101600.44;;;12.39;100.00
35647;BME280;28680;45.642;13.756;2023-04-28T01:45:12;101615.59;;;12.48;100.00
35647;BME280;28680;45.642;13.756;2023-04-28T01:47:38;101614.34;;;12.65;100.00
35647;BME280;28680;45.642;13.756;2023-04-28T01:50:05;101612.56;;;12.66;100.00
35647;BME280;28680;45.642;13.756;2023-04-28T01:52:31;101607.03;;;12.58;100.00
35647;BME280;28680;45.642;13.756;2023-04-28T01:54:57;101605.56;;;12.54;100.00
35647;BME280;28680;45.642;13.756;2023-04-28T01:57:23;101611.66;;;12.54;100.00
35647;BME280;28680;45.642;13.756;2023-04-28T01:59:49;101606.53;;;12.40;100.00
35647;BME280;28680;45.642;13.756;2023-04-28T02:02:14;101616.50;;;12.23;100.00
35647;BME280;28680;45.642;13.756;2023-04-28T02:04:40;101619.88;;;12.25;100.00
35647;BME280;28680;45.642;13.756;2023-04-28T02:07:06;101617.34;;;12.24;100.00
35647;BME280;28680;45.642;13.756;2023-04-28T02:09:33;101624.50;;;12.22;100.00
35647;BME280;28680;45.642;13.756;2023-04-28T02:11:59;101621.13;;;12.33;100.00
35647;BME280;28680;45.642;13.756;2023-04-28T02:14:27;101619.53;;;12.30;100.00
35647;BME280;28680;45.642;13.756;2023-04-28T02:16:53;101624.69;;;12.32;100.00
35647;BME280;28680;45.642;13.756;2023-04-28T02:19:19;101617.75;;;12.31;100.00
35647;BME280;28680;45.642;13.756;2023-04-28T02:21:45;101619.44;;;12.32;100.00
35647;BME280;28680;45.642;13.756;2023-04-28T02:24:11;101621.50;;;12.39;100.00
35647;BME280;28680;45.642;13.756;2023-04-28T02:26:37;101617.81;;;12.42;100.00
35647;BME280;28680;45.642;13.756;2023-04-28T02:29:03;101608.34;;;12.39;100.00
35647;BME280;28680;45.642;13.756;2023-04-28T02:31:29;101608.25;;;12.41;100.00
35647;BME280;28680;45.642;13.756;2023-04-28T02:33:54;101602.28;;;12.26;100.00
35647;BME280;28680;45.642;13.756;2023-04-28T02:36:20;101602.38;;;12.24;100.00
35647;BME280;28680;45.642;13.756;2023-04-28T02:38:46;101604.75;;;12.16;100.00
35647;BME280;28680;45.642;13.756;2023-04-28T02:41:12;101610.44;;;12.10;100.00
35647;BME280;28680;45.642;13.756;2023-04-28T02:43:40;101604.00;;;12.14;100.00
35647;BME280;28680;45.642;13.756;2023-04-28T02:46:06;101606.84;;;12.11;100.00
35647;BME280;28680;45.642;13.756;2023-04-28T02:48:33;101604.44;;;12.08;100.00
35647;BME280;28680;45.642;13.756;2023-04-28T02:51:02;101606.22;;;12.07;100.00
35647;BME280;28680;45.642;13.756;2023-04-28T02:53:28;101612.94;;;12.12;100.00
35647;BME280;28680;45.642;13.756;2023-04-28T02:55:54;101607.25;;;12.18;100.00
35647;BME280;28680;45.642;13.756;2023-04-28T02:58:20;101605.47;;;12.18;100.00
35647;BME280;28680;45.642;13.756;2023-04-28T03:00:46;101610.38;;;12.23;100.00
35647;BME280;28680;45.642;13.756;2023-04-28T03:03:12;101605.03;;;12.24;100.00
35647;BME280;28680;45.642;13.756;2023-04-28T03:05:38;101605.66;;;12.28;100.00
35647;BME280;28680;45.642;13.756;2023-04-28T03:08:04;101601.63;;;12.35;100.00
35647;BME280;28680;45.642;13.756;2023-04-28T03:10:30;101613.53;;;12.28;100.00
35647;BME280;28680;45.642;13.756;2023-04-28T03:12:56;101606.91;;;12.22;100.00
35647;BME280;28680;45.642;13.756;2023-04-28T03:15:22;101606.09;;;12.22;100.00
35647;BME280;28680;45.642;13.756;2023-04-28T03:17:48;101606.63;;;12.14;100.00
35647;BME280;28680;45.642;13.756;2023-04-28T03:20:14;101602.09;;;12.16;100.00
35647;BME280;28680;45.642;13.756;2023-04-28T03:22:40;101602.94;;;12.17;100.00
35647;BME280;28680;45.642;13.756;2023-04-28T03:25:06;101604.63;;;12.18;100.00
35647;BME280;28680;45.642;13.756;2023-04-28T03:27:32;101607.38;;;12.16;100.00
35647;BME280;28680;45.642;13.756;2023-04-28T03:29:58;101605.47;;;12.18;100.00
35647;BME280;28680;45.642;13.756;2023-04-28T03:32:24;101602.09;;;12.16;100.00
35647;BME280;28680;45.642;13.756;2023-04-28T03:34:50;101593.47;;;12.14;100.00
35647;BME280;28680;45.642;13.756;2023-04-28T03:37:16;101596.84;;;12.16;100.00
35647;BME280;28680;45.642;13.756;2023-04-28T03:39:41;101592.50;;;12.15;100.00
35647;BME280;28680;45.642;13.756;2023-04-28T03:42:07;101597.56;;;12.18;100.00
35647;BME280;28680;45.642;13.756;2023-04-28T03:44:33;101582.72;;;12.17;100.00
35647;BME280;28680;45.642;13.756;2023-04-28T03:46:59;101582.50;;;12.20;100.00
35647;BME280;28680;45.642;13.756;2023-04-28T03:49:26;101589.97;;;12.26;100.00
35647;BME280;28680;45.642;13.756;2023-04-28T03:51:51;101582.41;;;12.22;100.00
35647;BME280;28680;45.642;13.756;2023-04-28T03:54:17;101584.50;;;12.17;100.00
35647;BME280;28680;45.642;13.756;2023-04-28T03:56:44;101584.41;;;12.18;100.00
35647;BME280;28680;45.642;13.756;2023-04-28T03:59:10;101579.03;;;12.20;100.00
35647;BME280;28680;45.642;13.756;2023-04-28T04:01:37;101576.69;;;12.28;100.00
35647;BME280;28680;45.642;13.756;2023-04-28T04:04:03;101578.06;;;12.21;100.00
35647;BME280;28680;45.642;13.756;2023-04-28T04:06:29;101577.03;;;12.23;100.00
35647;BME280;28680;45.642;13.756;2023-04-28T04:08:55;101579.03;;;12.20;100.00
35647;BME280;28680;45.642;13.756;2023-04-28T04:11:21;101575.34;;;12.22;100.00
35647;BME280;28680;45.642;13.756;2023-04-28T04:13:47;101570.59;;;12.27;100.00
35647;BME280;28680;45.642;13.756;2023-04-28T04:16:13;101566.16;;;12.28;100.00
35647;BME280;28680;45.642;13.756;2023-04-28T04:18:42;101569.22;;;12.35;100.00
35647;BME280;28680;45.642;13.756;2023-04-28T04:21:08;101569.22;;;12.35;100.00
35647;BME280;28680;45.642;13.756;2023-04-28T04:23:34;101563.94;;;12.35;100.00
35647;BME280;28680;45.642;13.756;2023-04-28T04:26:00;101568.03;;;12.39;100.00
35647;BME280;28680;45.642;13.756;2023-04-28T04:28:25;101568.22;;;12.36;100.00
35647;BME280;28680;45.642;13.756;2023-04-28T04:30:51;101569.69;;;12.40;100.00
35647;BME280;28680;45.642;13.756;2023-04-28T04:33:18;101572.78;;;12.34;100.00
35647;BME280;28680;45.642;13.756;2023-04-28T04:35:44;101577.00;;;12.36;100.00
35647;BME280;28680;45.642;13.756;2023-04-28T04:38:09;101577.47;;;12.41;100.00
35647;BME280;28680;45.642;13.756;2023-04-28T04:40:35;101584.34;;;12.44;100.00
35647;BME280;28680;45.642;13.756;2023-04-28T04:43:01;101592.72;;;12.49;100.00
35647;BME280;28680;45.642;13.756;2023-04-28T04:45:27;101602.41;;;12.48;100.00
35647;BME280;28680;45.642;13.756;2023-04-28T04:47:53;101605.88;;;12.49;100.00
35647;BME280;28680;45.642;13.756;2023-04-28T04:50:19;101610.72;;;12.55;100.00
35647;BME280;28680;45.642;13.756;2023-04-28T04:52:45;101613.75;;;12.62;100.00
35647;BME280;28680;45.642;13.756;2023-04-28T04:55:11;101613.00;;;12.60;100.00
35647;BME280;28680;45.642;13.756;2023-04-28T04:57:37;101614.56;;;12.62;100.00
35647;BME280;28680;45.642;13.756;2023-04-28T05:00:04;101623.34;;;12.63;100.00
35647;BME280;28680;45.642;13.756;2023-04-28T05:02:30;101622.88;;;12.69;100.00
35647;BME280;28680;45.642;13.756;2023-04-28T05:04:56;101629.59;;;12.73;100.00
35647;BME280;28680;45.642;13.756;2023-04-28T05:07:21;101622.31;;;12.77;100.00
35647;BME280;28680;45.642;13.756;2023-04-28T05:09:50;101630.94;;;12.79;100.00
35647;BME280;28680;45.642;13.756;2023-04-28T05:12:16;101636.00;;;12.82;100.00
35647;BME280;28680;45.642;13.756;2023-04-28T05:14:42;101632.38;;;12.83;100.00
35647;BME280;28680;45.642;13.756;2023-04-28T05:17:08;101633.72;;;12.88;100.00
35647;BME280;28680;45.642;13.756;2023-04-28T05:19:34;101625.72;;;12.90;100.00
35647;BME280;28680;45.642;13.756;2023-04-28T05:22:01;101620.84;;;12.97;100.00
35647;BME280;28680;45.642;13.756;2023-04-28T05:24:27;101617.97;;;13.00;100.00
35647;BME280;28680;45.642;13.756;2023-04-28T05:26:53;101613.41;;;13.02;100.00
35647;BME280;28680;45.642;13.756;2023-04-28T05:29:21;101606.97;;;13.06;100.00
35647;BME280;28680;45.642;13.756;2023-04-28T05:31:47;101611.91;;;13.11;100.00
35647;BME280;28680;45.642;13.756;2023-04-28T05:34:13;101607.56;;;13.10;100.00
35647;BME280;28680;45.642;13.756;2023-04-28T05:36:39;101602.91;;;13.13;100.00
35647;BME280;28680;45.642;13.756;2023-04-28T05:39:04;101606.84;;;13.07;100.00
35647;BME280;28680;45.642;13.756;2023-04-28T05:41:31;101613.47;;;13.13;100.00
35647;BME280;28680;45.642;13.756;2023-04-28T05:43:57;101607.31;;;13.01;100.00
35647;BME280;28680;45.642;13.756;2023-04-28T05:46:23;101597.25;;;12.95;100.00
35647;BME280;28680;45.642;13.756;2023-04-28T05:48:49;101598.06;;;12.96;100.00
35647;BME280;28680;45.642;13.756;2023-04-28T05:51:15;101604.94;;;13.10;100.00
35647;BME280;28680;45.642;13.756;2023-04-28T05:53:40;101602.59;;;13.18;100.00
35647;BME280;28680;45.642;13.756;2023-04-28T05:56:07;101605.25;;;13.29;100.00
35647;BME280;28680;45.642;13.756;2023-04-28T05:58:33;101603.81;;;13.36;100.00
35647;BME280;28680;45.642;13.756;2023-04-28T06:00:59;101605.91;;;13.44;100.00
35647;BME280;28680;45.642;13.756;2023-04-28T06:03:25;101606.25;;;13.51;100.00
35647;BME280;28680;45.642;13.756;2023-04-28T06:05:51;101608.91;;;13.62;100.00
35647;BME280;28680;45.642;13.756;2023-04-28T06:08:18;101622.22;;;13.72;100.00
35647;BME280;28680;45.642;13.756;2023-04-28T06:10:44;101630.25;;;13.81;100.00
35647;BME280;28680;45.642;13.756;2023-04-28T06:13:10;101641.53;;;13.95;100.00
35647;BME280;28680;45.642;13.756;2023-04-28T06:15:36;101629.06;;;14.08;100.00
35647;BME280;28680;45.642;13.756;2023-04-28T06:18:02;101630.63;;;14.22;100.00
35647;BME280;28680;45.642;13.756;2023-04-28T06:20:30;101634.56;;;14.39;100.00
35647;BME280;28680;45.642;13.756;2023-04-28T06:22:56;101632.72;;;14.51;100.00
35647;BME280;28680;45.642;13.756;2023-04-28T06:25:22;101642.91;;;14.67;100.00
35647;BME280;28680;45.642;13.756;2023-04-28T06:27:48;101643.38;;;14.72;100.00
35647;BME280;28680;45.642;13.756;2023-04-28T06:30:33;101638.59;;;14.66;100.00
35647;BME280;28680;45.642;13.756;2023-04-28T06:32:59;101639.38;;;14.77;100.00
35647;BME280;28680;45.642;13.756;2023-04-28T06:35:25;101641.44;;;14.74;100.00
35647;BME280;28680;45.642;13.756;2023-04-28T06:37:51;101635.22;;;14.75;100.00
35647;BME280;28680;45.642;13.756;2023-04-28T06:40:17;101630.59;;;14.88;100.00
35647;BME280;28680;45.642;13.756;2023-04-28T06:42:43;101631.13;;;15.03;100.00
35647;BME280;28680;45.642;13.756;2023-04-28T06:45:09;101631.44;;;15.10;100.00
35647;BME280;28680;45.642;13.756;2023-04-28T06:47:35;101641.84;;;15.23;100.00
35647;BME280;28680;45.642;13.756;2023-04-28T06:50:02;101630.03;;;15.27;100.00
35647;BME280;28680;45.642;13.756;2023-04-28T06:52:28;101630.63;;;15.30;100.00
35647;BME280;28680;45.642;13.756;2023-04-28T06:54:55;101626.31;;;15.29;100.00
35647;BME280;28680;45.642;13.756;2023-04-28T06:57:21;101623.50;;;15.31;100.00
35647;BME280;28680;45.642;13.756;2023-04-28T06:59:47;101616.16;;;15.34;100.00
35647;BME280;28680;45.642;13.756;2023-04-28T07:02:13;101620.91;;;15.40;100.00
35647;BME280;28680;45.642;13.756;2023-04-28T07:04:39;101623.56;;;15.40;100.00
35647;BME280;28680;45.642;13.756;2023-04-28T07:07:05;101624.84;;;15.46;100.00
35647;BME280;28680;45.642;13.756;2023-04-28T07:09:34;101633.53;;;15.48;100.00
35647;BME280;28680;45.642;13.756;2023-04-28T07:12:00;101628.56;;;15.65;100.00
35647;BME280;28680;45.642;13.756;2023-04-28T07:14:26;101638.44;;;15.84;100.00
35647;BME280;28680;45.642;13.756;2023-04-28T07:16:51;101628.66;;;16.05;100.00
35647;BME280;28680;45.642;13.756;2023-04-28T07:19:17;101628.13;;;16.11;100.00
35647;BME280;28680;45.642;13.756;2023-04-28T07:21:43;101625.75;;;16.18;100.00
35647;BME280;28680;45.642;13.756;2023-04-28T07:24:10;101624.94;;;16.27;100.00
35647;BME280;28680;45.642;13.756;2023-04-28T07:26:36;101636.81;;;16.33;100.00
35647;BME280;28680;45.642;13.756;2023-04-28T07:29:02;101632.63;;;16.40;100.00
35647;BME280;28680;45.642;13.756;2023-04-28T07:31:28;101627.22;;;16.51;100.00
35647;BME280;28680;45.642;13.756;2023-04-28T07:33:54;101636.03;;;16.62;100.00
35647;BME280;28680;45.642;13.756;2023-04-28T07:36:20;101632.28;;;16.74;100.00
35647;BME280;28680;45.642;13.756;2023-04-28T07:38:46;101624.63;;;16.81;100.00
35647;BME280;28680;45.642;13.756;2023-04-28T07:41:12;101629.50;;;16.85;100.00
35647;BME280;28680;45.642;13.756;2023-04-28T07:43:39;101625.47;;;16.91;100.00
35647;BME280;28680;45.642;13.756;2023-04-28T07:46:06;101624.34;;;16.84;100.00
35647;BME280;28680;45.642;13.756;2023-04-28T07:48:34;101624.50;;;16.92;100.00
35647;BME280;28680;45.642;13.756;2023-04-28T07:51:00;101617.09;;;17.05;100.00
35647;BME280;28680;45.642;13.756;2023-04-28T07:53:26;101619.44;;;17.18;100.00
35647;BME280;28680;45.642;13.756;2023-04-28T07:55:53;101622.81;;;17.20;100.00
35647;BME280;28680;45.642;13.756;2023-04-28T07:58:19;101629.59;;;17.42;100.00
35647;BME280;28680;45.642;13.756;2023-04-28T08:00:45;101635.13;;;17.59;100.00
35647;BME280;28680;45.642;13.756;2023-04-28T08:03:11;101636.44;;;17.45;100.00
35647;BME280;28680;45.642;13.756;2023-04-28T08:05:40;101644.00;;;17.40;100.00
35647;BME280;28680;45.642;13.756;2023-04-28T08:08:06;101651.22;;;17.47;100.00
35647;BME280;28680;45.642;13.756;2023-04-28T08:10:32;101650.50;;;17.55;100.00
35647;BME280;28680;45.642;13.756;2023-04-28T08:12:58;101660.94;;;17.76;100.00
35647;BME280;28680;45.642;13.756;2023-04-28T08:15:24;101667.94;;;17.77;100.00
35647;BME280;28680;45.642;13.756;2023-04-28T08:17:52;101663.47;;;17.68;100.00
35647;BME280;28680;45.642;13.756;2023-04-28T08:20:18;101675.19;;;17.75;100.00
35647;BME280;28680;45.642;13.756;2023-04-28T08:22:45;101689.63;;;18.10;100.00
35647;BME280;28680;45.642;13.756;2023-04-28T08:25:11;101690.41;;;17.92;100.00
35647;BME280;28680;45.642;13.756;2023-04-28T08:27:37;101693.75;;;17.95;100.00
35647;BME280;28680;45.642;13.756;2023-04-28T08:30:07;101702.22;;;18.08;100.00
35647;BME280;28680;45.642;13.756;2023-04-28T08:32:33;101711.38;;;17.86;100.00
35647;BME280;28680;45.642;13.756;2023-04-28T08:34:59;101709.28;;;17.89;100.00
35647;BME280;28680;45.642;13.756;2023-04-28T08:37:28;101705.56;;;17.53;100.00
35647;BME280;28680;45.642;13.756;2023-04-28T08:39:54;101713.41;;;17.25;100.00
35647;BME280;28680;45.642;13.756;2023-04-28T08:42:30;101716.44;;;17.01;100.00
35647;BME280;28680;45.642;13.756;2023-04-28T08:44:57;101714.66;;;17.31;100.00
35647;BME280;28680;45.642;13.756;2023-04-28T08:47:38;101714.38;;;17.05;100.00
35647;BME280;28680;45.642;13.756;2023-04-28T08:50:12;101722.06;;;16.98;100.00
35647;BME280;28680;45.642;13.756;2023-04-28T08:52:40;101726.53;;;16.98;100.00
35647;BME280;28680;45.642;13.756;2023-04-28T08:55:09;101718.78;;;16.75;100.00
35647;BME280;28680;45.642;13.756;2023-04-28T08:57:42;101718.47;;;16.59;100.00
35647;BME280;28680;45.642;13.756;2023-04-28T09:00:10;101723.56;;;17.01;100.00
35647;BME280;28680;45.642;13.756;2023-04-28T09:02:36;101710.91;;;17.33;100.00
35647;BME280;28680;45.642;13.756;2023-04-28T09:05:06;101714.06;;;17.37;100.00
35647;BME280;28680;45.642;13.756;2023-04-28T09:07:32;101714.03;;;17.76;100.00
35647;BME280;28680;45.642;13.756;2023-04-28T09:10:21;101716.31;;;17.42;100.00
35647;BME280;28680;45.642;13.756;2023-04-28T09:12:51;101709.47;;;17.59;100.00
35647;BME280;28680;45.642;13.756;2023-04-28T09:15:36;101698.00;;;17.58;100.00
35647;BME280;28680;45.642;13.756;2023-04-28T09:18:05;101707.22;;;17.44;100.00
35647;BME280;28680;45.642;13.756;2023-04-28T09:20:33;101701.97;;;17.05;100.00
35647;BME280;28680;45.642;13.756;2023-04-28T09:23:19;101700.69;;;17.29;100.00
35647;BME280;28680;45.642;13.756;2023-04-28T09:26:06;101702.53;;;17.19;100.00
35647;BME280;28680;45.642;13.756;2023-04-28T09:28:34;101696.22;;;17.10;100.00
35647;BME280;28680;45.642;13.756;2023-04-28T09:31:01;101689.66;;;17.14;100.00
35647;BME280;28680;45.642;13.756;2023-04-28T09:33:27;101699.44;;;16.94;100.00
35647;BME280;28680;45.642;13.756;2023-04-28T09:35:53;101694.75;;;16.76;100.00
35647;BME280;28680;45.642;13.756;2023-04-28T09:38:21;101689.91;;;16.82;100.00
35647;BME280;28680;45.642;13.756;2023-04-28T09:41:01;101685.06;;;16.97;100.00
35647;BME280;28680;45.642;13.756;2023-04-28T09:43:32;101697.84;;;16.82;100.00
35647;BME280;28680;45.642;13.756;2023-04-28T09:46:01;101688.75;;;16.65;100.00
35647;BME280;28680;45.642;13.756;2023-04-28T09:48:37;101694.94;;;16.75;100.00
35647;BME280;28680;45.642;13.756;2023-04-28T09:51:07;101691.16;;;16.77;100.00
35647;BME280;28680;45.642;13.756;2023-04-28T09:53:34;101683.47;;;16.74;100.00
35647;BME280;28680;45.642;13.756;2023-04-28T09:56:02;101684.56;;;16.62;100.00
35647;BME280;28680;45.642;13.756;2023-04-28T09:58:29;101692.66;;;16.70;100.00
35647;BME280;28680;45.642;13.756;2023-04-28T10:00:59;101690.03;;;16.80;100.00
35647;BME280;28680;45.642;13.756;2023-04-28T10:03:30;101693.56;;;17.10;100.00
35647;BME280;28680;45.642;13.756;2023-04-28T10:05:58;101694.84;;;16.96;100.00
35647;BME280;28680;45.642;13.756;2023-04-28T10:08:25;101691.50;;;16.94;100.00
35647;BME280;28680;45.642;13.756;2023-04-28T10:10:52;101691.34;;;17.05;100.00
35647;BME280;28680;45.642;13.756;2023-04-28T10:13:23;101686.19;;;17.13;100.00
35647;BME280;28680;45.642;13.756;2023-04-28T10:15:50;101675.28;;;16.97;100.00
35647;BME280;28680;45.642;13.756;2023-04-28T10:18:22;101665.75;;;16.75;100.00
35647;BME280;28680;45.642;13.756;2023-04-28T10:20:56;101662.31;;;16.84;100.00
35647;BME280;28680;45.642;13.756;2023-04-28T10:23:51;101664.91;;;16.74;100.00
35647;BME280;28680;45.642;13.756;2023-04-28T10:27:07;101644.13;;;16.60;100.00
35647;BME280;28680;45.642;13.756;2023-04-28T10:29:34;101641.59;;;16.59;100.00
35647;BME280;28680;45.642;13.756;2023-04-28T10:32:23;101629.88;;;16.51;100.00
35647;BME280;28680;45.642;13.756;2023-04-28T10:43:09;101639.91;;;16.57;100.00
35647;BME280;28680;45.642;13.756;2023-04-28T10:48:15;101634.34;;;16.51;100.00
35647;BME280;28680;45.642;13.756;2023-04-28T10:56:20;101621.56;;;16.85;100.00
35647;BME280;28680;45.642;13.756;2023-04-28T10:58:48;101616.94;;;17.07;100.00
35647;BME280;28680;45.642;13.756;2023-04-28T11:06:29;101606.84;;;17.87;100.00
35647;BME280;28680;45.642;13.756;2023-04-28T11:09:46;101609.19;;;18.18;100.00
35647;BME280;28680;45.642;13.756;2023-04-28T11:12:14;101599.34;;;18.28;100.00
35647;BME280;28680;45.642;13.756;2023-04-28T11:14:40;101592.97;;;18.39;100.00
35647;BME280;28680;45.642;13.756;2023-04-28T11:17:09;101599.91;;;18.49;100.00
35647;BME280;28680;45.642;13.756;2023-04-28T11:19:45;101607.88;;;18.49;100.00
35647;BME280;28680;45.642;13.756;2023-04-28T11:22:18;101602.78;;;18.56;100.00
35647;BME280;28680;45.642;13.756;2023-04-28T11:25:00;101587.06;;;18.81;100.00
35647;BME280;28680;45.642;13.756;2023-04-28T11:27:27;101600.25;;;19.61;100.00
35647;BME280;28680;45.642;13.756;2023-04-28T11:29:54;101603.38;;;20.25;100.00
35647;BME280;28680;45.642;13.756;2023-04-28T11:32:32;101602.09;;;20.54;100.00
35647;BME280;28680;45.642;13.756;2023-04-28T11:34:59;101584.09;;;20.48;100.00
35647;BME280;28680;45.642;13.756;2023-04-28T11:37:25;101589.94;;;20.59;100.00
35647;BME280;28680;45.642;13.756;2023-04-28T11:39:51;101580.81;;;20.70;100.00
35647;BME280;28680;45.642;13.756;2023-04-28T11:42:17;101578.63;;;20.90;100.00
35647;BME280;28680;45.642;13.756;2023-04-28T11:44:51;101574.44;;;20.96;100.00
35647;BME280;28680;45.642;13.756;2023-04-28T11:47:31;101577.97;;;20.96;100.00
35647;BME280;28680;45.642;13.756;2023-04-28T11:49:58;101568.31;;;20.87;100.00
35647;BME280;28680;45.642;13.756;2023-04-28T11:52:24;101572.97;;;20.93;100.00
35647;BME280;28680;45.642;13.756;2023-04-28T11:54:58;101568.81;;;20.91;100.00
35647;BME280;28680;45.642;13.756;2023-04-28T11:57:26;101557.41;;;21.13;100.00
35647;BME280;28680;45.642;13.756;2023-04-28T11:59:53;101563.75;;;21.12;100.00
35647;BME280;28680;45.642;13.756;2023-04-28T12:02:26;101552.94;;;20.97;100.00
35647;BME280;28680;45.642;13.756;2023-04-28T12:04:53;101555.97;;;20.78;100.00
35647;BME280;28680;45.642;13.756;2023-04-28T12:07:19;101549.44;;;20.80;100.00
35647;BME280;28680;45.642;13.756;2023-04-28T12:10:12;101545.44;;;21.01;100.00
35647;BME280;28680;45.642;13.756;2023-04-28T12:12:38;101538.06;;;21.11;91.66
35647;BME280;28680;45.642;13.756;2023-04-28T12:15:06;101532.56;;;21.21;96.16
35647;BME280;28680;45.642;13.756;2023-04-28T12:17:38;101529.03;;;21.20;100.00
35647;BME280;28680;45.642;13.756;2023-04-28T12:20:11;101527.28;;;20.96;100.00
35647;BME280;28680;45.642;13.756;2023-04-28T12:22:57;101527.75;;;20.75;100.00
35647;BME280;28680;45.642;13.756;2023-04-28T12:25:23;101513.44;;;20.60;100.00
35647;BME280;28680;45.642;13.756;2023-04-28T12:28:09;101509.09;;;20.59;100.00
35647;BME280;28680;45.642;13.756;2023-04-28T12:30:36;101514.09;;;20.62;100.00
35647;BME280;28680;45.642;13.756;2023-04-28T12:33:23;101514.59;;;20.33;92.17
35647;BME280;28680;45.642;13.756;2023-04-28T12:35:52;101528.69;;;20.09;88.02
35647;BME280;28680;45.642;13.756;2023-04-28T12:38:25;101514.22;;;20.11;94.28
35647;BME280;28680;45.642;13.756;2023-04-28T12:40:52;101514.91;;;20.13;86.63
35647;BME280;28680;45.642;13.756;2023-04-28T12:43:18;101511.22;;;20.06;86.47
35647;BME280;28680;45.642;13.756;2023-04-28T12:45:45;101513.06;;;20.14;83.20
35647;BME280;28680;45.642;13.756;2023-04-28T12:48:11;101510.88;;;19.93;80.96
35647;BME280;28680;45.642;13.756;2023-04-28T12:50:37;101503.53;;;20.03;82.06
35647;BME280;28680;45.642;13.756;2023-04-28T12:53:03;101525.88;;;20.02;81.56
35647;BME280;28680;45.642;13.756;2023-04-28T12:55:29;101514.56;;;20.08;83.58
35647;BME280;28680;45.642;13.756;2023-04-28T12:57:55;101521.16;;;19.88;87.91